createdAt,value
2023-03-14T00:01:03.949Z,3.26
2023-03-14T00:03:56.845Z,3.18
2023-03-14T00:06:41.993Z,3.15
2023-03-14T00:09:32.759Z,3.06
2023-03-14T00:12:23.134Z,3.07
2023-03-14T00:15:08.201Z,3.01
2023-03-14T00:17:58.772Z,2.82
2023-03-14T00:20:47.853Z,2.91
2023-03-14T00:23:39.858Z,2.92
2023-03-14T00:26:31.138Z,2.93
2023-03-14T00:29:17.565Z,2.93
2023-03-14T00:32:02.021Z,2.91
2023-03-14T00:34:54.919Z,2.85
2023-03-14T00:37:47.305Z,2.77
2023-03-14T00:40:31.834Z,2.67
2023-03-14T00:43:23.286Z,2.66
2023-03-14T00:46:12.780Z,2.67
2023-03-14T00:49:03.953Z,2.63
2023-03-14T00:51:52.712Z,2.55
2023-03-14T00:54:44.085Z,2.47
2023-03-14T00:57:33.585Z,2.47
2023-03-14T01:00:19.678Z,2.48
2023-03-14T01:03:13.172Z,2.41
2023-03-14T01:06:16.832Z,2.41
2023-03-14T01:09:07.419Z,2.37
2023-03-14T01:11:56.992Z,2.20
2023-03-14T01:14:48.910Z,2.29
2023-03-14T01:17:35.616Z,2.31
2023-03-14T01:20:29.158Z,2.30
2023-03-14T01:23:19.164Z,2.26
2023-03-14T01:26:07.916Z,2.30
2023-03-14T01:28:56.115Z,2.35
2023-03-14T01:31:48.544Z,2.27
2023-03-14T01:34:36.627Z,2.24
2023-03-14T01:37:24.592Z,2.29
2023-03-14T01:40:19.639Z,2.30
2023-03-14T01:43:22.939Z,2.32
2023-03-14T01:46:26.797Z,2.26
2023-03-14T01:49:26.684Z,2.16
2023-03-14T01:52:20.054Z,1.99
2023-03-14T01:55:11.273Z,1.99
2023-03-14T01:58:03.810Z,1.97
2023-03-14T02:00:55.379Z,1.95
2023-03-14T02:03:55.785Z,1.89
2023-03-14T02:06:53.293Z,1.78
2023-03-14T02:09:42.365Z,1.79
2023-03-14T02:12:33.173Z,1.74
2023-03-14T02:15:18.762Z,1.62
2023-03-14T02:18:14.827Z,1.64
2023-03-14T02:21:09.328Z,1.60
2023-03-14T02:24:02.625Z,1.65
2023-03-14T02:27:05.447Z,1.56
2023-03-14T02:29:55.325Z,1.48
2023-03-14T02:32:50.569Z,1.53
2023-03-14T02:35:46.563Z,1.54
2023-03-14T02:38:42.978Z,1.49
2023-03-14T02:41:27.700Z,1.48
2023-03-14T02:44:16.191Z,1.61
2023-03-14T02:47:10.085Z,1.64
2023-03-14T02:50:04.841Z,1.66
2023-03-14T02:52:53.462Z,1.62
2023-03-14T02:55:40.968Z,1.63
2023-03-14T02:58:26.081Z,1.55
2023-03-14T03:01:12.326Z,1.55
2023-03-14T03:03:57.339Z,1.51
2023-03-14T03:06:43.985Z,1.49
2023-03-14T03:09:30.392Z,1.43
2023-03-14T03:12:16.527Z,1.60
2023-03-14T03:15:03.676Z,1.60
2023-03-14T03:17:51.472Z,1.63
2023-03-14T03:20:37.855Z,1.60
2023-03-14T03:23:29.110Z,1.53
2023-03-14T03:26:15.632Z,1.60
2023-03-14T03:29:05.546Z,1.47
2023-03-14T03:31:58.358Z,1.46
2023-03-14T03:34:42.660Z,1.42
2023-03-14T03:37:28.660Z,1.34
2023-03-14T03:40:16.044Z,1.42
2023-03-14T03:43:03.534Z,1.45
2023-03-14T03:45:51.950Z,1.41
2023-03-14T03:48:42.503Z,1.39
2023-03-14T03:51:32.207Z,1.39
2023-03-14T03:54:20.442Z,1.39
2023-03-14T03:57:09.246Z,1.29
2023-03-14T03:59:56.670Z,1.23
2023-03-14T04:02:45.729Z,1.21
2023-03-14T04:05:36.684Z,1.14
2023-03-14T04:08:28.271Z,1.13
2023-03-14T04:11:20.062Z,1.10
2023-03-14T04:14:08.469Z,1.08
2023-03-14T04:16:59.171Z,1.02
2023-03-14T04:19:48.763Z,1.00
2023-03-14T04:22:39.746Z,1.03
2023-03-14T04:25:28.664Z,1.03
2023-03-14T04:28:19.438Z,0.92
2023-03-14T04:31:15.018Z,1.02
2023-03-14T04:34:06.673Z,0.97
2023-03-14T04:36:56.382Z,0.88
2023-03-14T04:39:45.370Z,0.82
2023-03-14T04:42:34.727Z,0.77
2023-03-14T04:45:27.196Z,0.83
2023-03-14T04:48:15.918Z,0.78
2023-03-14T04:51:01.669Z,0.75
2023-03-14T04:53:49.954Z,0.81
2023-03-14T04:56:38.115Z,0.80
2023-03-14T04:59:24.905Z,0.75
2023-03-14T05:02:13.692Z,0.81
2023-03-14T05:04:57.156Z,0.87
2023-03-14T05:07:40.896Z,0.89
2023-03-14T05:10:27.241Z,0.90
2023-03-14T05:13:18.836Z,1.03
2023-03-14T05:16:17.221Z,1.01
2023-03-14T05:19:08.019Z,1.23
2023-03-14T05:21:57.036Z,1.35
2023-03-14T05:24:46.563Z,1.47
2023-03-14T05:27:36.155Z,1.51
2023-03-14T05:30:28.110Z,1.57
2023-03-14T05:33:18.298Z,1.72
2023-03-14T05:36:05.370Z,1.78
2023-03-14T05:38:57.510Z,1.96
2023-03-14T05:41:47.081Z,1.99
2023-03-14T05:44:37.263Z,1.89
2023-03-14T05:47:26.148Z,1.86
2023-03-14T05:50:20.417Z,2.33
2023-03-14T05:53:14.703Z,2.76
2023-03-14T05:56:05.983Z,2.92
2023-03-14T05:58:56.290Z,3.86
2023-03-14T06:01:48.700Z,6.17
2023-03-14T06:04:33.357Z,8.08
2023-03-14T06:07:21.991Z,9.78
2023-03-14T06:10:14.806Z,9.48
2023-03-14T06:13:03.781Z,10.14
2023-03-14T06:15:57.166Z,10.76
2023-03-14T06:18:52.253Z,11.28
2023-03-14T06:21:41.825Z,13.01
2023-03-14T06:24:34.904Z,14.56
2023-03-14T06:27:27.834Z,13.09
2023-03-14T06:30:22.298Z,13.80
2023-03-14T06:33:09.411Z,13.58
2023-03-14T06:36:03.816Z,17.31
2023-03-14T06:38:58.182Z,17.67
2023-03-14T06:41:47.783Z,16.11
2023-03-14T06:44:40.685Z,19.46
2023-03-14T06:47:32.796Z,21.30
2023-03-14T06:50:20.840Z,21.46
2023-03-14T06:53:12.573Z,23.27
2023-03-14T06:56:01.671Z,24.07
2023-03-14T06:58:51.442Z,26.44
2023-03-14T07:01:44.153Z,26.86
2023-03-14T07:04:36.602Z,27.26
2023-03-14T07:07:28.154Z,28.55
2023-03-14T07:10:23.347Z,27.70
2023-03-14T07:13:12.426Z,30.93
2023-03-14T07:16:03.048Z,31.46
2023-03-14T07:18:53.135Z,31.28
2023-03-14T07:21:41.298Z,33.33
2023-03-14T07:24:30.401Z,33.16
2023-03-14T07:27:15.805Z,33.26
2023-03-14T07:30:06.287Z,31.63
2023-03-14T07:32:55.291Z,28.25
2023-03-14T07:35:53.724Z,31.32
2023-03-14T07:38:38.534Z,34.64
2023-03-14T07:41:26.061Z,34.31
2023-03-14T07:44:15.461Z,27.70
2023-03-14T07:47:02.655Z,31.13
2023-03-14T07:49:49.411Z,34.29
2023-03-14T07:52:44.262Z,34.78
2023-03-14T07:55:35.465Z,36.13
2023-03-14T07:58:27.524Z,36.69
2023-03-14T08:01:24.643Z,34.14
2023-03-14T08:04:14.804Z,37.44
2023-03-14T08:07:04.570Z,39.40
2023-03-14T08:09:56.856Z,40.45
2023-03-14T08:12:48.097Z,36.30
2023-03-14T08:15:44.171Z,39.25
2023-03-14T08:18:31.808Z,39.50
2023-03-14T08:21:21.861Z,38.48
2023-03-14T08:24:17.801Z,38.87
2023-03-14T08:27:11.326Z,40.41
2023-03-14T08:30:02.554Z,39.76
2023-03-14T08:32:54.521Z,38.26
2023-03-14T08:35:48.631Z,38.15
2023-03-14T08:38:39.074Z,41.15
2023-03-14T08:41:31.637Z,38.08
2023-03-14T08:44:22.209Z,39.24
2023-03-14T08:47:13.430Z,39.84
2023-03-14T08:50:02.282Z,41.74
2023-03-14T08:52:54.558Z,42.03
2023-03-14T08:55:40.457Z,44.50
2023-03-14T08:58:33.097Z,44.17
2023-03-14T09:01:27.463Z,42.14
2023-03-14T09:04:19.148Z,39.57
2023-03-14T09:07:06.850Z,40.75
2023-03-14T09:09:56.201Z,42.37
2023-03-14T09:12:46.753Z,43.22
2023-03-14T09:15:38.054Z,42.07
2023-03-14T09:18:29.622Z,43.26
2023-03-14T09:21:20.387Z,41.84
2023-03-14T09:24:05.397Z,44.60
2023-03-14T09:26:50.397Z,44.45
2023-03-14T09:29:45.722Z,44.75
2023-03-14T09:32:37.743Z,45.20
2023-03-14T09:35:33.167Z,43.89
2023-03-14T09:38:25.460Z,43.36
2023-03-14T09:41:19.038Z,43.01
2023-03-14T09:44:16.695Z,38.40
2023-03-14T09:47:07.572Z,42.06
2023-03-14T09:50:02.308Z,43.02
2023-03-14T09:52:52.487Z,45.48
2023-03-14T09:55:43.828Z,44.70
2023-03-14T09:58:34.529Z,43.87
2023-03-14T10:01:32.257Z,42.55
2023-03-14T10:04:22.422Z,45.11
2023-03-14T10:07:16.718Z,45.16
2023-03-14T10:10:17.572Z,44.90
2023-03-14T10:13:17.659Z,39.18
2023-03-14T10:16:03.517Z,41.47
2023-03-14T10:18:48.760Z,38.42
2023-03-14T10:21:39.606Z,39.43
2023-03-14T10:24:25.017Z,38.02
2023-03-14T10:27:21.943Z,38.42
2023-03-14T10:30:09.087Z,38.25
2023-03-14T10:32:52.546Z,40.93
2023-03-14T10:35:36.579Z,41.43
2023-03-14T10:38:20.385Z,43.55
2023-03-14T10:41:05.449Z,44.71
2023-03-14T10:43:54.244Z,42.54
2023-03-14T10:46:39.060Z,41.30
2023-03-14T10:49:30.027Z,43.22
2023-03-14T10:52:18.045Z,44.23
2023-03-14T10:55:04.192Z,43.18
2023-03-14T10:57:47.966Z,43.46
2023-03-14T11:00:34.665Z,42.88
2023-03-14T11:03:21.812Z,42.24
2023-03-14T11:06:13.503Z,42.04
2023-03-14T11:09:08.402Z,41.59
2023-03-14T11:12:02.808Z,43.24
2023-03-14T11:14:59.793Z,42.54
2023-03-14T11:18:01.026Z,42.74
2023-03-14T11:20:57.180Z,42.78
2023-03-14T11:23:58.455Z,42.31
2023-03-14T11:26:56.290Z,42.00
2023-03-14T11:29:46.448Z,42.56
2023-03-14T11:32:49.398Z,43.10
2023-03-14T11:35:44.939Z,44.67
2023-03-14T11:38:44.224Z,42.62
2023-03-14T11:41:37.839Z,40.18
2023-03-14T11:44:29.330Z,34.56
2023-03-14T11:47:26.825Z,31.20
2023-03-14T11:50:23.781Z,29.73
2023-03-14T11:53:15.098Z,27.12
2023-03-14T11:56:06.601Z,24.23
2023-03-14T11:59:04.034Z,24.26
2023-03-14T12:02:05.370Z,23.11
2023-03-14T12:05:24.773Z,22.64
2023-03-14T12:08:46.719Z,21.79
2023-03-14T12:11:45.974Z,21.16
2023-03-14T12:14:35.289Z,20.59
2023-03-14T12:17:32.842Z,20.44
2023-03-14T12:20:25.877Z,19.63
2023-03-14T12:23:22.803Z,19.64
2023-03-14T12:26:26.718Z,19.84
2023-03-14T12:29:26.424Z,19.56
2023-03-14T12:32:28.596Z,19.24
2023-03-14T12:35:41.745Z,19.01
2023-03-14T12:38:44.384Z,18.70
2023-03-14T12:41:42.495Z,18.79
2023-03-14T12:44:48.979Z,18.63
2023-03-14T12:47:58.128Z,18.48
2023-03-14T12:50:52.474Z,18.44
2023-03-14T12:54:07.955Z,18.14
2023-03-14T12:57:17.020Z,18.35
2023-03-14T13:00:05.948Z,17.93
2023-03-14T13:02:57.581Z,17.59
2023-03-14T13:05:57.541Z,17.50
2023-03-14T13:08:46.148Z,17.39
2023-03-14T13:11:32.166Z,17.84
2023-03-14T13:14:21.825Z,17.50
2023-03-14T13:17:33.086Z,17.62
2023-03-14T13:20:23.344Z,17.67
2023-03-14T13:23:10.365Z,17.51
2023-03-14T13:25:58.905Z,17.77
2023-03-14T13:28:46.978Z,17.91
2023-03-14T13:31:34.052Z,17.85
2023-03-14T13:34:17.868Z,17.39
2023-03-14T13:37:02.917Z,17.03
2023-03-14T13:39:52.505Z,16.89
2023-03-14T13:42:36.188Z,16.87
2023-03-14T13:45:21.053Z,16.75
2023-03-14T13:48:07.540Z,16.56
2023-03-14T13:50:58.697Z,16.73
2023-03-14T13:53:47.386Z,16.75
2023-03-14T13:56:34.153Z,16.72
2023-03-14T13:59:25.229Z,16.62
2023-03-14T14:02:18.678Z,16.57
2023-03-14T14:05:04.495Z,16.46
2023-03-14T14:07:49.504Z,16.38
2023-03-14T14:10:34.674Z,16.18
2023-03-14T14:13:24.218Z,16.06
2023-03-14T14:16:10.444Z,15.88
2023-03-14T14:18:56.711Z,15.84
2023-03-14T14:21:47.484Z,16.07
2023-03-14T14:24:34.025Z,15.93
2023-03-14T14:27:19.790Z,15.84
2023-03-14T14:30:06.513Z,15.73
2023-03-14T14:32:54.293Z,15.45
2023-03-14T14:35:39.419Z,15.33
2023-03-14T14:38:24.465Z,15.35
2023-03-14T14:41:18.725Z,15.36
2023-03-14T14:44:11.341Z,15.34
2023-03-14T14:47:10.146Z,15.21
2023-03-14T14:50:02.277Z,15.12
2023-03-14T14:52:49.584Z,15.11
2023-03-14T14:55:44.545Z,14.96
2023-03-14T14:58:39.889Z,14.85
2023-03-14T15:01:37.232Z,14.73
2023-03-14T15:04:30.675Z,14.61
2023-03-14T15:07:20.118Z,14.44
2023-03-14T15:10:13.034Z,14.35
2023-03-14T15:13:06.747Z,14.20
2023-03-14T15:15:58.712Z,14.14
2023-03-14T15:18:46.224Z,13.99
2023-03-14T15:21:36.125Z,13.89
2023-03-14T15:24:25.889Z,13.80
2023-03-14T15:27:17.858Z,13.63
2023-03-14T15:30:03.642Z,13.43
2023-03-14T15:32:48.700Z,13.36
2023-03-14T15:35:32.926Z,13.40
2023-03-14T15:38:22.854Z,13.06
2023-03-14T15:41:07.468Z,13.14
2023-03-14T15:47:02.281Z,12.96
2023-03-14T15:49:47.538Z,12.81
2023-03-14T15:52:33.353Z,12.70
2023-03-14T15:55:25.090Z,12.58
2023-03-14T15:58:26.295Z,12.56
2023-03-14T16:01:21.323Z,12.31
2023-03-14T16:04:12.344Z,12.05
2023-03-14T16:07:03.610Z,11.97
2023-03-14T16:09:55.366Z,11.82
2023-03-14T16:12:47.116Z,11.75
2023-03-14T16:15:33.732Z,11.66
2023-03-14T16:18:22.138Z,11.46
2023-03-14T16:21:18.304Z,11.39
2023-03-14T16:24:06.444Z,11.34
2023-03-14T16:26:53.190Z,11.27
2023-03-14T16:29:42.918Z,11.12
2023-03-14T16:32:33.016Z,11.13
2023-03-14T16:35:24.562Z,10.97
2023-03-14T16:38:12.877Z,10.73
2023-03-14T16:41:02.229Z,10.76
2023-03-14T16:43:55.214Z,10.82
2023-03-14T16:46:42.179Z,10.64
2023-03-14T16:49:29.112Z,10.68
2023-03-14T16:52:17.709Z,10.58
2023-03-14T16:55:10.714Z,10.46
2023-03-14T16:57:58.933Z,10.18
2023-03-14T17:00:52.436Z,10.17
2023-03-14T17:03:41.595Z,10.22
2023-03-14T17:06:30.654Z,10.16
2023-03-14T17:09:25.418Z,10.04
2023-03-14T17:12:15.148Z,10.00
2023-03-14T17:15:02.710Z,9.98
2023-03-14T17:17:53.268Z,10.05
2023-03-14T17:20:43.054Z,9.99
2023-03-14T17:23:31.540Z,9.97
2023-03-14T17:26:26.805Z,10.00
2023-03-14T17:29:19.596Z,9.87
2023-03-14T17:32:12.213Z,9.80
2023-03-14T17:34:59.444Z,9.64
2023-03-14T17:37:50.398Z,9.59
2023-03-14T17:40:38.204Z,9.52
2023-03-14T17:43:28.875Z,9.53
2023-03-14T17:46:17.894Z,9.52
2023-03-14T17:49:04.818Z,9.53
2023-03-14T17:51:53.114Z,9.49
2023-03-14T17:54:39.160Z,9.43
2023-03-14T17:57:25.908Z,9.48
2023-03-14T18:00:15.374Z,9.57
2023-03-14T18:03:04.531Z,9.43
2023-03-14T18:05:50.199Z,9.39
2023-03-14T18:08:34.454Z,9.29
2023-03-14T18:11:27.969Z,9.25
2023-03-14T18:14:16.222Z,9.30
2023-03-14T18:16:59.615Z,9.14
2023-03-14T18:19:48.066Z,9.11
2023-03-14T18:22:31.378Z,9.03
2023-03-14T18:25:14.792Z,8.96
2023-03-14T18:27:59.024Z,8.93
2023-03-14T18:30:44.769Z,8.99
2023-03-14T18:33:31.347Z,8.99
2023-03-14T18:36:22.831Z,9.04
2023-03-14T18:39:12.672Z,8.98
2023-03-14T18:42:01.128Z,8.89
2023-03-14T18:44:48.197Z,8.98
2023-03-14T18:47:37.908Z,8.94
2023-03-14T18:50:22.501Z,8.82
2023-03-14T18:53:17.177Z,8.78
2023-03-14T18:56:02.103Z,8.78
2023-03-14T18:58:52.415Z,8.81
2023-03-14T19:01:39.483Z,8.86
2023-03-14T19:04:28.667Z,8.75
2023-03-14T19:07:19.114Z,8.71
2023-03-14T19:10:09.468Z,8.61
2023-03-14T19:12:54.894Z,8.69
2023-03-14T19:15:42.203Z,8.64
2023-03-14T19:18:30.787Z,8.65
2023-03-14T19:21:21.022Z,8.48
2023-03-14T19:24:09.008Z,8.54
2023-03-14T19:26:56.595Z,8.43
2023-03-14T19:29:42.551Z,8.47
2023-03-14T19:32:27.207Z,8.32
2023-03-14T19:35:11.033Z,8.15
2023-03-14T19:37:57.175Z,8.15
2023-03-14T19:40:46.822Z,7.93
2023-03-14T19:43:36.144Z,7.91
2023-03-14T19:46:20.748Z,7.85
2023-03-14T19:49:07.350Z,7.76
2023-03-14T19:51:54.400Z,7.79
2023-03-14T19:54:42.000Z,7.83
2023-03-14T19:57:30.808Z,7.74
2023-03-14T20:00:20.490Z,7.61
2023-03-14T20:03:06.516Z,7.60
2023-03-14T20:05:55.613Z,7.49
2023-03-14T20:08:41.176Z,7.42
2023-03-14T20:11:26.353Z,7.56
2023-03-14T20:14:14.887Z,7.58
2023-03-14T20:17:02.932Z,7.35
2023-03-14T20:19:49.319Z,7.33
2023-03-14T20:22:37.446Z,7.49
2023-03-14T20:25:27.247Z,7.32
2023-03-14T20:28:14.172Z,7.28
2023-03-14T20:31:02.314Z,7.27
2023-03-14T20:33:51.516Z,7.32
2023-03-14T20:36:39.462Z,7.40
2023-03-14T20:39:25.875Z,7.40
2023-03-14T20:42:16.424Z,7.33
2023-03-14T20:45:03.825Z,7.38
2023-03-14T20:47:47.204Z,7.37
2023-03-14T20:50:32.614Z,7.37
2023-03-14T20:53:22.157Z,7.32
2023-03-14T20:56:12.878Z,7.32
2023-03-14T20:59:02.237Z,7.19
2023-03-14T21:01:59.271Z,7.21
2023-03-14T21:04:46.603Z,7.20
2023-03-14T21:07:41.895Z,7.16
2023-03-14T21:10:29.023Z,7.09
2023-03-14T21:13:12.512Z,7.09
2023-03-14T21:15:56.687Z,7.16
2023-03-14T21:18:40.393Z,7.10
2023-03-14T21:21:23.927Z,6.97
2023-03-14T21:24:10.218Z,6.96
2023-03-14T21:26:53.878Z,6.89
2023-03-14T21:29:37.559Z,6.93
2023-03-14T21:32:21.983Z,6.83
2023-03-14T21:35:06.164Z,6.80
2023-03-14T21:37:49.710Z,6.83
2023-03-14T21:40:34.706Z,6.67
2023-03-14T21:43:19.965Z,6.71
2023-03-14T21:46:11.135Z,6.72
2023-03-14T21:49:02.255Z,6.69
2023-03-14T21:51:52.391Z,6.72
2023-03-14T21:54:37.638Z,6.64
2023-03-14T21:57:30.403Z,6.63
2023-03-14T22:00:22.928Z,6.57
2023-03-14T22:03:15.174Z,6.47
2023-03-14T22:06:05.602Z,6.57
2023-03-14T22:08:51.622Z,6.65
2023-03-14T22:11:35.579Z,6.68
2023-03-14T22:14:24.263Z,6.61
2023-03-14T22:17:07.838Z,6.63
2023-03-14T22:19:53.584Z,6.71
2023-03-14T22:22:44.028Z,6.60
2023-03-14T22:25:33.333Z,6.52
2023-03-14T22:28:21.339Z,6.56
2023-03-14T22:31:13.983Z,6.50
2023-03-14T22:34:00.417Z,6.47
2023-03-14T22:36:45.154Z,6.40
2023-03-14T22:39:36.956Z,6.41
2023-03-14T22:42:22.846Z,6.31
2023-03-14T22:45:12.042Z,6.39
2023-03-14T22:48:05.848Z,6.34
2023-03-14T22:50:58.239Z,6.39
2023-03-14T22:53:52.761Z,6.45
2023-03-14T22:56:42.847Z,6.41
2023-03-14T22:59:34.261Z,6.33
2023-03-14T23:02:17.826Z,6.29
2023-03-14T23:05:08.963Z,6.23
2023-03-14T23:07:54.040Z,6.26
2023-03-14T23:10:39.408Z,6.30
2023-03-14T23:13:28.531Z,6.38
2023-03-14T23:16:25.200Z,6.38
2023-03-14T23:19:27.797Z,6.40
2023-03-14T23:22:18.627Z,6.41
2023-03-14T23:25:13.137Z,6.27
2023-03-14T23:28:06.286Z,6.29
2023-03-14T23:30:55.559Z,6.19
2023-03-14T23:33:47.858Z,6.19
2023-03-14T23:36:46.660Z,6.08
2023-03-14T23:39:32.326Z,5.90
2023-03-14T23:42:16.609Z,5.71
2023-03-14T23:45:01.008Z,5.78
2023-03-14T23:47:45.636Z,5.71
2023-03-14T23:50:29.651Z,5.72
2023-03-14T23:53:14.706Z,5.69
2023-03-14T23:56:01.651Z,5.77
2023-03-14T23:58:49.075Z,5.63
